Time;durP1;ratioP1;P1;durP2;ratioP2;P2;SDS_P1;SDS_P2;PMS_P1;PMS_P2;Temp;Humidity;BMP_temperature;BMP_pressure;BME280_temperature;BME280_humidity;BME280_pressure;Samples;Min_cycle;Max_cycle;Signal;HPM_P1;HPM_P2
2023/05/28 00:00:06;;;;;;;;;;;16.00;94.10;;;;;;5030974;28;19909;-74
2023/05/28 00:02:32;;;;;;;;;;;15.80;94.80;;;;;;5029558;28;19915;-74
2023/05/28 00:04:57;;;;;;;;;;;15.70;95.80;;;;;;5029545;28;19987;-73
2023/05/28 00:07:24;;;;;;;;;;;15.60;95.60;;;;;;5024690;28;19934;-74
2023/05/28 00:09:49;;;;;;;;;;;15.40;96.20;;;;;;5027606;28;19905;-73
2023/05/28 00:12:15;;;;;;;;;;;15.40;96.40;;;;;;5030458;28;19924;-74
2023/05/28 00:14:40;;;;;;;;;;;15.30;95.70;;;;;;5034687;28;19909;-74
2023/05/28 00:17:06;;;;;;;;;;;15.30;95.70;;;;;;5030197;28;19955;-74
2023/05/28 00:19:32;;;;;;;;;;;15.30;95.90;;;;;;5057997;28;20393;-75
2023/05/28 00:21:57;;;;;;;;;;;15.40;95.50;;;;;;5030141;28;19909;-74
2023/05/28 00:24:23;;;;;;;;;;;15.50;94.90;;;;;;5030448;28;19915;-75
2023/05/28 00:26:48;;;;;;;;;;;15.50;95.10;;;;;;5030059;28;19909;-74
2023/05/28 00:29:14;;;;;;;;;;;15.50;94.70;;;;;;5032308;28;19971;-74
2023/05/28 00:31:40;;;;;;;;;;;15.40;95.70;;;;;;5029914;28;19909;-74
2023/05/28 00:34:05;;;;;;;;;;;15.30;95.80;;;;;;5030583;28;20619;-74
2023/05/28 00:36:31;;;;;;;;;;;15.40;94.40;;;;;;5030164;28;19909;-74
2023/05/28 00:38:56;;;;;;;;;;;15.50;93.90;;;;;;5030847;28;19916;-75
2023/05/28 00:41:22;;;;;;;;;;;15.40;94.00;;;;;;5033494;28;19913;-75
2023/05/28 00:43:48;;;;;;;;;;;15.30;94.60;;;;;;5029412;28;19909;-74
2023/05/28 00:46:17;;;;;;;;;;;15.30;94.20;;;;;;5030557;28;19917;-74
2023/05/28 00:48:43;;;;;;;;;;;15.30;94.20;;;;;;5031624;28;19915;-74
2023/05/28 00:51:10;;;;;;;;;;;15.20;95.10;;;;;;5024928;28;20286;-74
2023/05/28 00:53:35;;;;;;;;;;;15.00;96.20;;;;;;5029843;28;19917;-75
2023/05/28 00:56:02;;;;;;;;;;;15.10;95.80;;;;;;5022928;28;19963;-75
2023/05/28 00:58:28;;;;;;;;;;;15.10;95.20;;;;;;5032718;28;19909;-74
2023/05/28 01:00:53;;;;;;;;;;;15.20;94.80;;;;;;5033232;28;20359;-75
2023/05/28 01:03:19;;;;;;;;;;;15.10;94.80;;;;;;5026399;28;19978;-74
2023/05/28 01:05:45;;;;;;;;;;;15.00;95.80;;;;;;5029340;28;19919;-74
2023/05/28 01:08:11;;;;;;;;;;;15.00;95.40;;;;;;5028002;28;19909;-74
2023/05/28 01:10:37;;;;;;;;;;;15.00;95.40;;;;;;5029283;28;19917;-74
2023/05/28 01:13:04;;;;;;;;;;;15.10;94.80;;;;;;5027823;28;20417;-75
2023/05/28 01:15:29;;;;;;;;;;;15.00;95.50;;;;;;5032497;28;20050;-74
2023/05/28 01:17:57;;;;;;;;;;;15.00;95.00;;;;;;5028691;28;19921;-75
2023/05/28 01:20:23;;;;;;;;;;;14.90;96.90;;;;;;5030427;28;19909;-75
2023/05/28 01:22:53;;;;;;;;;;;14.80;97.20;;;;;;5029513;28;19916;-75
2023/05/28 01:25:19;;;;;;;;;;;14.60;97.60;;;;;;5027952;28;19909;-74
2023/05/28 01:27:45;;;;;;;;;;;14.60;98.00;;;;;;5035063;28;19975;-75
2023/05/28 01:30:11;;;;;;;;;;;14.70;98.00;;;;;;5039865;28;19909;-75
2023/05/28 01:32:37;;;;;;;;;;;14.70;97.60;;;;;;5035125;28;19921;-75
2023/05/28 01:35:04;;;;;;;;;;;14.70;97.50;;;;;;5036058;28;19904;-75
2023/05/28 01:37:30;;;;;;;;;;;14.70;97.60;;;;;;5031211;28;21073;-75
2023/05/28 01:39:57;;;;;;;;;;;14.70;97.60;;;;;;5033030;28;20431;-75
2023/05/28 01:42:22;;;;;;;;;;;14.80;96.80;;;;;;5032928;28;19921;-75
2023/05/28 01:44:49;;;;;;;;;;;14.70;97.30;;;;;;5032319;28;19981;-75
2023/05/28 01:47:16;;;;;;;;;;;14.70;97.80;;;;;;5030975;28;20699;-75
2023/05/28 01:49:42;;;;;;;;;;;14.70;97.80;;;;;;5034356;28;19924;-75
2023/05/28 01:52:07;;;;;;;;;;;14.70;98.00;;;;;;5032096;28;20373;-75
2023/05/28 01:54:33;;;;;;;;;;;14.70;98.10;;;;;;5034949;28;19990;-75
2023/05/28 01:56:59;;;;;;;;;;;14.80;97.00;;;;;;5031743;28;19947;-75
2023/05/28 01:59:25;;;;;;;;;;;14.90;96.40;;;;;;5031312;28;19924;-75
2023/05/28 02:01:51;;;;;;;;;;;14.90;96.30;;;;;;5032942;28;19967;-75
2023/05/28 02:04:17;;;;;;;;;;;14.90;96.30;;;;;;5027999;28;19909;-75
2023/05/28 02:06:45;;;;;;;;;;;14.90;96.70;;;;;;5030778;28;19916;-75
2023/05/28 02:09:10;;;;;;;;;;;14.90;97.30;;;;;;5030668;28;20298;-75
2023/05/28 02:11:36;;;;;;;;;;;14.80;97.70;;;;;;5031411;28;19924;-75
2023/05/28 02:14:03;;;;;;;;;;;14.80;97.90;;;;;;5031193;28;19996;-75
2023/05/28 02:16:29;;;;;;;;;;;14.80;97.80;;;;;;5034810;28;20000;-75
2023/05/28 02:18:55;;;;;;;;;;;14.90;96.70;;;;;;5032247;28;19922;-75
2023/05/28 02:21:20;;;;;;;;;;;15.00;96.10;;;;;;5033268;28;19917;-75
2023/05/28 02:23:47;;;;;;;;;;;15.00;95.60;;;;;;5032455;28;20415;-75
2023/05/28 02:26:12;;;;;;;;;;;15.10;95.20;;;;;;5034494;28;19952;-75
2023/05/28 02:28:38;;;;;;;;;;;15.00;95.90;;;;;;5033662;28;19944;-75
2023/05/28 02:31:03;;;;;;;;;;;15.00;96.10;;;;;;5033434;28;19928;-74
2023/05/28 02:33:29;;;;;;;;;;;15.10;95.90;;;;;;5034033;28;20011;-75
2023/05/28 02:35:54;;;;;;;;;;;15.00;96.20;;;;;;5031895;28;20402;-75
2023/05/28 02:38:20;;;;;;;;;;;15.00;96.20;;;;;;5032584;28;19924;-75
2023/05/28 02:40:46;;;;;;;;;;;14.90;96.50;;;;;;5037012;28;19917;-74
2023/05/28 02:43:11;;;;;;;;;;;14.90;96.80;;;;;;5031834;28;19905;-74
2023/05/28 02:45:37;;;;;;;;;;;14.90;96.60;;;;;;5034315;28;19908;-74
2023/05/28 02:48:02;;;;;;;;;;;15.00;96.30;;;;;;5027694;28;19934;-74
2023/05/28 02:50:28;;;;;;;;;;;15.10;95.90;;;;;;5037438;28;19955;-74
2023/05/28 02:52:54;;;;;;;;;;;15.00;96.70;;;;;;5029104;28;19960;-73
2023/05/28 02:55:20;;;;;;;;;;;15.00;96.20;;;;;;5026531;28;19939;-75
2023/05/28 02:57:46;;;;;;;;;;;15.10;95.50;;;;;;5031916;28;20063;-75
2023/05/28 03:00:12;;;;;;;;;;;15.10;95.70;;;;;;5034258;28;19909;-74
2023/05/28 03:02:37;;;;;;;;;;;15.10;95.90;;;;;;5029751;28;19924;-74
2023/05/28 03:05:03;;;;;;;;;;;15.10;95.80;;;;;;5032408;28;20014;-73
2023/05/28 03:07:29;;;;;;;;;;;15.10;95.20;;;;;;5027138;28;19909;-73
2023/05/28 03:09:55;;;;;;;;;;;15.10;95.30;;;;;;5034916;28;19996;-74
2023/05/28 03:12:21;;;;;;;;;;;15.20;95.40;;;;;;5032133;28;19921;-75
2023/05/28 03:14:47;;;;;;;;;;;15.10;95.80;;;;;;5030247;28;19943;-74
2023/05/28 03:17:12;;;;;;;;;;;15.20;95.10;;;;;;5031846;28;19909;-75
2023/05/28 03:19:38;;;;;;;;;;;15.20;95.00;;;;;;5030708;28;19947;-75
2023/05/28 03:22:03;;;;;;;;;;;15.20;94.90;;;;;;5030126;28;20333;-75
2023/05/28 03:24:30;;;;;;;;;;;15.30;94.30;;;;;;5031242;28;19955;-75
2023/05/28 03:26:57;;;;;;;;;;;15.30;94.90;;;;;;5028072;28;19912;-75
2023/05/28 03:29:22;;;;;;;;;;;15.20;95.20;;;;;;5031770;28;19945;-74
2023/05/28 03:31:48;;;;;;;;;;;15.20;95.30;;;;;;5030486;28;19955;-74
2023/05/28 03:34:14;;;;;;;;;;;15.30;95.20;;;;;;5035266;28;19924;-74
2023/05/28 03:36:40;;;;;;;;;;;15.30;95.30;;;;;;5030938;28;19912;-74
2023/05/28 03:39:06;;;;;;;;;;;15.30;95.80;;;;;;5032140;28;20430;-74
2023/05/28 03:41:32;;;;;;;;;;;15.30;95.60;;;;;;5028381;28;19912;-75
2023/05/28 03:43:57;;;;;;;;;;;15.30;95.60;;;;;;5026947;28;19916;-75
2023/05/28 03:46:23;;;;;;;;;;;15.40;95.00;;;;;;5030328;28;20279;-74
2023/05/28 03:48:48;;;;;;;;;;;15.40;94.60;;;;;;5034688;28;19917;-74
2023/05/28 03:51:14;;;;;;;;;;;15.40;94.60;;;;;;5032173;28;19916;-74
2023/05/28 03:53:39;;;;;;;;;;;15.40;94.50;;;;;;5034445;28;19956;-74
2023/05/28 03:56:06;;;;;;;;;;;15.50;94.50;;;;;;5025574;28;20418;-74
2023/05/28 03:58:31;;;;;;;;;;;15.50;94.10;;;;;;5029272;28;20291;-74
2023/05/28 04:00:57;;;;;;;;;;;15.50;94.40;;;;;;5030347;28;19916;-74
2023/05/28 04:03:22;;;;;;;;;;;15.50;94.20;;;;;;5029935;28;20472;-75
2023/05/28 04:05:48;;;;;;;;;;;15.60;94.00;;;;;;5030415;28;19905;-74
2023/05/28 04:08:13;;;;;;;;;;;15.60;94.00;;;;;;5031360;28;19908;-74
2023/05/28 04:10:39;;;;;;;;;;;15.60;94.30;;;;;;5035087;28;19952;-74
2023/05/28 04:13:05;;;;;;;;;;;15.60;94.00;;;;;;5029745;28;19920;-74
2023/05/28 04:15:31;;;;;;;;;;;15.70;93.60;;;;;;5030207;28;19905;-75
2023/05/28 04:17:56;;;;;;;;;;;15.70;93.50;;;;;;5024703;28;19913;-75
2023/05/28 04:20:22;;;;;;;;;;;15.70;94.40;;;;;;5027442;28;19909;-74
2023/05/28 04:22:47;;;;;;;;;;;15.70;93.60;;;;;;5029548;28;19912;-75
2023/05/28 04:25:13;;;;;;;;;;;15.50;94.50;;;;;;5027622;28;19909;-75
2023/05/28 04:27:40;;;;;;;;;;;15.50;94.70;;;;;;5031397;28;19917;-74
2023/05/28 04:30:08;;;;;;;;;;;15.60;94.60;;;;;;5032448;28;20015;-74
2023/05/28 04:32:33;;;;;;;;;;;15.70;94.30;;;;;;5026158;28;20310;-75
2023/05/28 04:35:03;;;;;;;;;;;15.70;94.30;;;;;;5036563;28;19909;-75
2023/05/28 04:37:29;;;;;;;;;;;15.70;94.50;;;;;;5029756;28;20383;-75
2023/05/28 04:39:55;;;;;;;;;;;15.80;94.60;;;;;;5032385;28;19913;-74
2023/05/28 04:42:20;;;;;;;;;;;15.80;94.60;;;;;;5033105;28;20417;-76
2023/05/28 04:44:46;;;;;;;;;;;15.80;94.10;;;;;;5029144;28;20393;-75
2023/05/28 04:47:12;;;;;;;;;;;16.00;93.60;;;;;;5030151;28;19905;-75
2023/05/28 04:49:40;;;;;;;;;;;16.00;93.20;;;;;;5023949;28;19921;-74
2023/05/28 04:52:06;;;;;;;;;;;16.00;93.70;;;;;;5031378;28;19913;-75
2023/05/28 04:54:31;;;;;;;;;;;16.00;94.40;;;;;;5028940;28;19917;-74
2023/05/28 04:56:57;;;;;;;;;;;15.90;94.70;;;;;;5026915;28;19984;-75
2023/05/28 04:59:22;;;;;;;;;;;15.70;94.40;;;;;;5033248;28;19937;-74
2023/05/28 05:01:48;;;;;;;;;;;15.60;94.70;;;;;;5031781;28;19940;-75
2023/05/28 05:04:13;;;;;;;;;;;15.50;95.40;;;;;;5034588;28;19909;-75
2023/05/28 05:06:39;;;;;;;;;;;15.50;95.10;;;;;;5033926;28;19916;-74
2023/05/28 05:09:05;;;;;;;;;;;15.60;95.10;;;;;;5032833;28;19915;-75
2023/05/28 05:11:30;;;;;;;;;;;15.70;94.90;;;;;;5031753;28;19909;-75
2023/05/28 05:13:56;;;;;;;;;;;15.80;94.30;;;;;;5029105;28;20341;-74
2023/05/28 05:16:22;;;;;;;;;;;15.80;94.10;;;;;;5031606;28;20357;-74
2023/05/28 05:18:47;;;;;;;;;;;15.90;94.00;;;;;;5031226;28;19956;-74
2023/05/28 05:21:13;;;;;;;;;;;15.90;93.90;;;;;;5035772;28;19991;-75
2023/05/28 05:23:39;;;;;;;;;;;16.00;93.70;;;;;;5032752;28;19913;-75
2023/05/28 05:26:05;;;;;;;;;;;16.00;93.30;;;;;;5030757;28;20389;-75
2023/05/28 05:28:31;;;;;;;;;;;16.00;93.30;;;;;;5033335;28;19944;-75
2023/05/28 05:30:56;;;;;;;;;;;16.00;93.00;;;;;;5057715;28;21313;-76
2023/05/28 05:33:22;;;;;;;;;;;16.10;92.70;;;;;;5032192;28;19917;-75
2023/05/28 05:35:47;;;;;;;;;;;16.10;92.40;;;;;;5030836;28;19951;-75
2023/05/28 05:38:13;;;;;;;;;;;16.10;93.10;;;;;;5038598;28;20394;-75
2023/05/28 05:40:38;;;;;;;;;;;16.20;93.10;;;;;;5035378;28;20007;-75
2023/05/28 05:43:04;;;;;;;;;;;16.30;93.00;;;;;;5036563;28;19909;-74
2023/05/28 05:45:29;;;;;;;;;;;16.40;92.90;;;;;;5035812;28;19913;-75
2023/05/28 05:47:55;;;;;;;;;;;16.50;92.10;;;;;;5034052;28;20428;-75
2023/05/28 05:50:20;;;;;;;;;;;16.60;92.30;;;;;;5034401;28;19909;-74
2023/05/28 05:52:46;;;;;;;;;;;16.70;92.30;;;;;;5031972;28;20398;-75
2023/05/28 05:55:12;;;;;;;;;;;16.80;91.90;;;;;;5033285;28;20002;-74
2023/05/28 05:57:37;;;;;;;;;;;17.00;92.00;;;;;;5027316;28;19908;-75
2023/05/28 06:00:08;;;;;;;;;;;17.10;91.10;;;;;;5033060;28;19908;-74
2023/05/28 06:02:35;;;;;;;;;;;17.10;90.30;;;;;;5027088;28;19915;-75
2023/05/28 06:05:02;;;;;;;;;;;17.20;90.10;;;;;;5032230;28;19905;-74
2023/05/28 06:07:28;;;;;;;;;;;17.20;90.20;;;;;;5026642;28;19975;-74
2023/05/28 06:09:53;;;;;;;;;;;17.30;90.20;;;;;;5032191;28;19913;-74
2023/05/28 06:12:19;;;;;;;;;;;17.30;90.30;;;;;;5032126;28;20354;-73
2023/05/28 06:14:44;;;;;;;;;;;17.40;90.50;;;;;;5028665;28;20533;-75
2023/05/28 06:17:10;;;;;;;;;;;17.40;90.60;;;;;;5031836;28;19909;-75
2023/05/28 06:19:36;;;;;;;;;;;17.50;90.50;;;;;;5030565;28;19917;-75
2023/05/28 06:22:03;;;;;;;;;;;17.50;90.80;;;;;;5031554;28;19909;-75
2023/05/28 06:24:28;;;;;;;;;;;17.50;90.80;;;;;;5031482;28;19909;-74
2023/05/28 06:26:54;;;;;;;;;;;17.60;90.80;;;;;;5030686;28;20686;-76
2023/05/28 06:29:19;;;;;;;;;;;17.70;90.70;;;;;;5040106;28;19935;-75
2023/05/28 06:31:45;;;;;;;;;;;17.70;90.80;;;;;;5024404;28;19921;-75
2023/05/28 06:34:11;;;;;;;;;;;17.80;90.70;;;;;;5024081;28;19963;-76
2023/05/28 06:36:36;;;;;;;;;;;17.80;90.50;;;;;;5025772;28;19948;-75
2023/05/28 06:39:03;;;;;;;;;;;17.90;90.20;;;;;;5026814;28;20405;-76
2023/05/28 06:41:29;;;;;;;;;;;17.90;89.90;;;;;;5021748;28;19924;-77
2023/05/28 06:43:55;;;;;;;;;;;17.90;89.70;;;;;;5026912;28;19917;-78
2023/05/28 06:46:21;;;;;;;;;;;17.90;89.90;;;;;;5032188;28;19913;-78
2023/05/28 06:48:46;;;;;;;;;;;18.00;90.00;;;;;;5035187;28;19909;-78
2023/05/28 06:51:12;;;;;;;;;;;18.00;90.00;;;;;;5031399;28;19945;-78
2023/05/28 06:53:38;;;;;;;;;;;18.00;90.00;;;;;;5030775;28;20012;-78
2023/05/28 06:56:05;;;;;;;;;;;18.00;89.80;;;;;;5032773;28;19909;-78
2023/05/28 06:58:31;;;;;;;;;;;18.00;89.80;;;;;;5031471;28;20341;-78
2023/05/28 07:00:57;;;;;;;;;;;18.00;89.80;;;;;;5031201;28;19927;-78
2023/05/28 07:03:23;;;;;;;;;;;18.00;90.00;;;;;;5031263;28;20461;-78
2023/05/28 07:05:48;;;;;;;;;;;18.00;90.10;;;;;;5028303;28;19994;-78
2023/05/28 07:08:14;;;;;;;;;;;18.00;90.30;;;;;;5030444;28;19909;-78
2023/05/28 07:10:39;;;;;;;;;;;17.90;89.50;;;;;;5027528;28;19923;-77
2023/05/28 07:13:05;;;;;;;;;;;17.90;89.80;;;;;;5029292;28;19933;-76
2023/05/28 07:15:30;;;;;;;;;;;18.00;90.30;;;;;;5029415;28;19915;-77
2023/05/28 07:17:56;;;;;;;;;;;18.10;90.30;;;;;;5028960;28;20023;-77
2023/05/28 07:20:21;;;;;;;;;;;18.10;90.20;;;;;;5030045;28;20405;-77
2023/05/28 07:22:47;;;;;;;;;;;18.20;89.90;;;;;;5030015;28;19916;-78
2023/05/28 07:25:13;;;;;;;;;;;18.30;89.50;;;;;;5030297;28;19984;-78
2023/05/28 07:27:39;;;;;;;;;;;18.40;88.90;;;;;;5030699;28;20012;-76
2023/05/28 07:30:05;;;;;;;;;;;18.60;88.80;;;;;;5030715;28;19908;-76
2023/05/28 07:32:30;;;;;;;;;;;18.70;88.10;;;;;;5029712;28;19924;-75
2023/05/28 07:34:56;;;;;;;;;;;18.80;87.30;;;;;;5031389;28;19913;-74
2023/05/28 07:37:21;;;;;;;;;;;18.90;87.80;;;;;;5031248;28;20357;-74
2023/05/28 07:39:47;;;;;;;;;;;19.00;86.70;;;;;;5029695;28;19913;-74
2023/05/28 07:42:13;;;;;;;;;;;19.10;86.40;;;;;;5025808;28;19909;-77
2023/05/28 07:44:39;;;;;;;;;;;19.20;86.30;;;;;;5025212;28;19909;-81
2023/05/28 07:47:05;;;;;;;;;;;19.30;85.80;;;;;;5027830;28;19925;-77
2023/05/28 07:49:31;;;;;;;;;;;19.40;85.20;;;;;;5028594;28;20342;-77
2023/05/28 07:51:56;;;;;;;;;;;19.60;85.00;;;;;;5033797;28;19944;-79
2023/05/28 07:54:21;;;;;;;;;;;19.80;84.40;;;;;;5036986;28;19909;-79
2023/05/28 07:56:48;;;;;;;;;;;19.90;83.60;;;;;;5030669;28;19909;-79
2023/05/28 07:59:14;;;;;;;;;;;19.90;83.80;;;;;;5031402;28;19916;-77
2023/05/28 08:01:40;;;;;;;;;;;19.80;84.50;;;;;;5030144;28;19999;-78
2023/05/28 08:04:05;;;;;;;;;;;19.80;84.00;;;;;;5035529;28;19909;-77
2023/05/28 08:06:32;;;;;;;;;;;19.80;84.30;;;;;;5028880;28;19999;-79
2023/05/28 08:08:58;;;;;;;;;;;19.80;84.30;;;;;;5030262;28;19917;-78
2023/05/28 08:11:24;;;;;;;;;;;19.70;83.60;;;;;;5029622;28;19915;-77
2023/05/28 08:13:49;;;;;;;;;;;19.50;83.00;;;;;;5029874;28;19921;-77
2023/05/28 08:16:15;;;;;;;;;;;19.50;83.80;;;;;;5033564;28;19909;-78
2023/05/28 08:18:40;;;;;;;;;;;19.50;83.90;;;;;;5031563;28;19909;-78
2023/05/28 08:21:07;;;;;;;;;;;19.60;84.20;;;;;;5027357;28;19913;-77
2023/05/28 08:23:34;;;;;;;;;;;19.60;84.00;;;;;;5029866;28;19916;-78
2023/05/28 08:26:03;;;;;;;;;;;19.70;84.10;;;;;;5026078;28;19928;-78
2023/05/28 08:28:29;;;;;;;;;;;19.70;83.90;;;;;;5033646;28;19958;-78
2023/05/28 08:30:55;;;;;;;;;;;19.70;82.70;;;;;;5032808;28;19913;-78
2023/05/28 08:33:21;;;;;;;;;;;19.80;82.40;;;;;;5034117;28;20366;-78
2023/05/28 08:35:46;;;;;;;;;;;19.90;81.90;;;;;;5032253;28;19909;-77
2023/05/28 08:38:12;;;;;;;;;;;20.10;82.10;;;;;;5033886;28;20013;-79
2023/05/28 08:40:41;;;;;;;;;;;20.20;81.80;;;;;;5035795;28;20063;-78
2023/05/28 08:43:07;;;;;;;;;;;20.30;81.30;;;;;;5037693;28;20047;-79
2023/05/28 08:45:34;;;;;;;;;;;20.50;80.80;;;;;;5058933;28;21264;-79
2023/05/28 08:48:00;;;;;;;;;;;20.70;80.80;;;;;;5035320;28;19984;-78
2023/05/28 08:50:27;;;;;;;;;;;20.80;80.60;;;;;;5029626;28;20003;-77
2023/05/28 08:52:52;;;;;;;;;;;20.90;79.40;;;;;;5028807;28;19924;-78
2023/05/28 08:55:18;;;;;;;;;;;21.00;80.40;;;;;;5028965;28;19909;-77
2023/05/28 08:57:45;;;;;;;;;;;21.00;80.20;;;;;;5034788;28;19988;-77
2023/05/28 09:00:11;;;;;;;;;;;21.00;79.10;;;;;;5030467;28;20074;-76
2023/05/28 09:02:38;;;;;;;;;;;21.10;79.40;;;;;;5032504;28;19999;-78
2023/05/28 09:05:03;;;;;;;;;;;21.20;78.30;;;;;;5031949;28;19912;-76
2023/05/28 09:07:29;;;;;;;;;;;21.40;78.60;;;;;;5031350;28;19942;-77
2023/05/28 09:09:57;;;;;;;;;;;21.50;78.70;;;;;;5031281;28;20429;-78
2023/05/28 09:12:23;;;;;;;;;;;21.60;77.90;;;;;;5024251;28;20479;-78
2023/05/28 09:14:52;;;;;;;;;;;21.70;77.70;;;;;;5029175;28;19952;-78
2023/05/28 09:17:31;;;;;;;;;;;21.80;77.40;;;;;;5029644;28;19909;-76
2023/05/28 09:19:59;;;;;;;;;;;21.80;77.30;;;;;;5031953;28;20314;-77
2023/05/28 09:22:26;;;;;;;;;;;21.80;76.80;;;;;;5029887;28;19909;-77
2023/05/28 09:24:54;;;;;;;;;;;21.70;77.00;;;;;;5027842;28;20321;-77
2023/05/28 09:27:21;;;;;;;;;;;21.70;77.60;;;;;;5023569;28;20108;-77
2023/05/28 09:29:47;;;;;;;;;;;21.60;77.10;;;;;;5028233;28;19916;-77
2023/05/28 09:32:17;;;;;;;;;;;21.60;77.30;;;;;;5027879;28;20004;-78
2023/05/28 09:34:42;;;;;;;;;;;21.50;77.20;;;;;;5024672;28;21582;-77
2023/05/28 09:37:08;;;;;;;;;;;21.50;76.70;;;;;;5028896;28;19913;-77
2023/05/28 09:39:33;;;;;;;;;;;21.50;76.10;;;;;;5031189;28;19909;-77
2023/05/28 09:42:03;;;;;;;;;;;21.70;76.70;;;;;;5027161;28;19909;-77
2023/05/28 09:44:32;;;;;;;;;;;21.80;76.80;;;;;;5027660;28;19948;-78
2023/05/28 09:46:58;;;;;;;;;;;22.00;75.90;;;;;;5038125;28;19932;-78
2023/05/28 09:49:24;;;;;;;;;;;22.10;75.60;;;;;;5030425;28;19909;-78
2023/05/28 09:51:52;;;;;;;;;;;22.10;75.30;;;;;;5028629;28;19996;-77
2023/05/28 09:54:18;;;;;;;;;;;22.00;74.60;;;;;;5032174;28;19924;-77
2023/05/28 09:56:45;;;;;;;;;;;22.00;75.20;;;;;;5030689;28;19909;-78
2023/05/28 09:59:12;;;;;;;;;;;21.90;75.50;;;;;;5028478;28;19909;-77
2023/05/28 10:01:41;;;;;;;;;;;21.70;76.60;;;;;;5028622;28;19909;-78
2023/05/28 10:04:08;;;;;;;;;;;21.70;76.70;;;;;;5028756;28;19948;-78
2023/05/28 10:06:35;;;;;;;;;;;21.60;76.30;;;;;;5025343;28;19909;-78
2023/05/28 10:09:02;;;;;;;;;;;21.60;76.70;;;;;;5028293;28;19921;-78
2023/05/28 10:11:30;;;;;;;;;;;21.70;76.20;;;;;;5028242;28;19956;-78
2023/05/28 10:13:56;;;;;;;;;;;21.80;76.60;;;;;;5026439;28;19924;-77
2023/05/28 10:16:21;;;;;;;;;;;22.00;75.80;;;;;;5028788;28;20310;-77
2023/05/28 10:18:47;;;;;;;;;;;22.20;75.60;;;;;;5026006;28;19931;-77
2023/05/28 10:21:13;;;;;;;;;;;22.30;75.80;;;;;;5028161;28;19921;-77
2023/05/28 10:23:42;;;;;;;;;;;22.30;74.70;;;;;;5026181;28;19909;-77
2023/05/28 10:26:08;;;;;;;;;;;22.20;73.30;;;;;;5054839;28;20334;-77
2023/05/28 10:28:33;;;;;;;;;;;22.10;74.60;;;;;;5027129;28;19909;-76
2023/05/28 10:31:06;;;;;;;;;;;21.90;75.20;;;;;;5028656;28;19999;-77
2023/05/28 10:33:37;;;;;;;;;;;21.70;75.70;;;;;;5025973;28;19960;-77
2023/05/28 10:36:03;;;;;;;;;;;21.60;75.90;;;;;;5028012;28;19912;-76
2023/05/28 10:38:28;;;;;;;;;;;21.60;75.60;;;;;;5034961;28;19920;-76
2023/05/28 10:41:01;;;;;;;;;;;21.50;76.30;;;;;;5024684;28;19909;-77
2023/05/28 10:43:47;;;;;;;;;;;21.50;76.30;;;;;;5026171;28;19920;-76
2023/05/28 10:46:19;;;;;;;;;;;21.50;75.90;;;;;;5026537;28;20334;-78
2023/05/28 10:49:04;;;;;;;;;;;21.50;76.70;;;;;;5050807;28;19936;-77
2023/05/28 10:52:05;;;;;;;;;;;21.60;76.40;;;;;;5026540;28;20337;-77
2023/05/28 10:54:33;;;;;;;;;;;21.60;76.10;;;;;;5057383;28;19923;-77
2023/05/28 10:57:08;;;;;;;;;;;21.70;76.40;;;;;;5030546;28;19924;-77
2023/05/28 10:59:38;;;;;;;;;;;21.80;76.10;;;;;;5024878;28;19909;-77
2023/05/28 11:02:05;;;;;;;;;;;21.90;75.90;;;;;;5026292;28;20357;-76
2023/05/28 11:04:34;;;;;;;;;;;22.00;75.80;;;;;;5023194;28;19909;-78
2023/05/28 11:07:00;;;;;;;;;;;22.20;75.50;;;;;;5026854;28;20010;-78
2023/05/28 11:09:26;;;;;;;;;;;22.60;75.30;;;;;;5029009;28;19987;-77
2023/05/28 11:11:52;;;;;;;;;;;22.90;74.30;;;;;;5026316;28;19908;-76
2023/05/28 11:14:18;;;;;;;;;;;23.20;73.00;;;;;;5029684;28;19913;-74
2023/05/28 11:16:43;;;;;;;;;;;23.40;72.20;;;;;;5028103;28;19909;-74
2023/05/28 11:19:11;;;;;;;;;;;23.40;72.10;;;;;;5031538;28;20710;-74
2023/05/28 11:21:56;;;;;;;;;;;23.30;72.10;;;;;;5027203;28;19944;-74
2023/05/28 11:24:22;;;;;;;;;;;23.40;71.50;;;;;;5025519;28;20019;-75
2023/05/28 11:26:48;;;;;;;;;;;23.30;70.80;;;;;;5027346;28;20513;-74
2023/05/28 11:29:15;;;;;;;;;;;23.30;71.50;;;;;;5022555;28;19960;-75
2023/05/28 11:31:41;;;;;;;;;;;23.20;70.90;;;;;;5026052;28;19913;-74
2023/05/28 11:34:07;;;;;;;;;;;23.10;71.10;;;;;;5031773;28;19928;-74
2023/05/28 11:36:39;;;;;;;;;;;23.10;71.50;;;;;;5028392;28;20055;-76
2023/05/28 11:39:06;;;;;;;;;;;23.10;71.90;;;;;;5025581;28;19909;-73
2023/05/28 11:41:31;;;;;;;;;;;23.20;72.50;;;;;;5028359;28;19913;-75
2023/05/28 11:43:57;;;;;;;;;;;23.50;72.10;;;;;;5022092;28;19996;-73
2023/05/28 11:46:22;;;;;;;;;;;24.00;71.20;;;;;;5024798;28;19909;-73
2023/05/28 11:48:48;;;;;;;;;;;24.50;70.30;;;;;;5027954;28;20323;-75
2023/05/28 11:51:13;;;;;;;;;;;25.00;69.40;;;;;;5031911;28;19909;-74
2023/05/28 11:53:43;;;;;;;;;;;25.70;68.50;;;;;;5028696;28;19924;-74
2023/05/28 11:56:09;;;;;;;;;;;26.30;65.70;;;;;;5033597;28;19912;-75
2023/05/28 11:58:41;;;;;;;;;;;26.60;65.00;;;;;;5029771;28;19909;-75
2023/05/28 12:01:07;;;;;;;;;;;26.50;64.40;;;;;;5030660;28;19908;-74
2023/05/28 12:03:33;;;;;;;;;;;26.40;64.30;;;;;;5032676;28;19909;-74
2023/05/28 12:05:59;;;;;;;;;;;26.30;64.80;;;;;;5030911;28;19919;-74
2023/05/28 12:08:25;;;;;;;;;;;26.10;65.30;;;;;;5029995;28;19997;-73
2023/05/28 12:10:51;;;;;;;;;;;25.80;66.20;;;;;;5026173;28;19920;-74
2023/05/28 12:13:16;;;;;;;;;;;25.50;66.10;;;;;;5026236;28;19921;-75
2023/05/28 12:15:43;;;;;;;;;;;25.30;66.40;;;;;;5026854;28;20346;-75
2023/05/28 12:18:09;;;;;;;;;;;25.10;67.00;;;;;;5033163;28;19963;-75
2023/05/28 12:20:40;;;;;;;;;;;24.80;67.20;;;;;;5027338;28;20355;-74
2023/05/28 12:23:07;;;;;;;;;;;24.60;67.30;;;;;;5032035;28;19917;-74
2023/05/28 12:25:51;;;;;;;;;;;24.40;67.60;;;;;;5025883;28;19955;-74
2023/05/28 12:28:17;;;;;;;;;;;24.20;67.70;;;;;;5023725;28;20003;-75
2023/05/28 12:30:44;;;;;;;;;;;23.90;68.70;;;;;;5023381;28;19928;-74
2023/05/28 12:33:10;;;;;;;;;;;23.70;69.10;;;;;;5027313;28;19925;-75
2023/05/28 12:35:36;;;;;;;;;;;23.50;69.50;;;;;;5024453;28;19925;-76
2023/05/28 12:38:02;;;;;;;;;;;23.30;70.10;;;;;;5023643;28;20011;-75
2023/05/28 12:40:27;;;;;;;;;;;23.20;70.50;;;;;;5029342;28;19912;-75
2023/05/28 12:42:53;;;;;;;;;;;23.10;71.20;;;;;;5026556;28;19966;-75
2023/05/28 12:45:18;;;;;;;;;;;23.10;71.20;;;;;;5026131;28;19916;-76
2023/05/28 12:47:44;;;;;;;;;;;23.20;71.20;;;;;;5025732;28;19917;-74
2023/05/28 12:50:10;;;;;;;;;;;23.50;71.20;;;;;;5026006;28;19928;-74
2023/05/28 12:52:36;;;;;;;;;;;23.90;69.50;;;;;;5025377;28;19932;-74
2023/05/28 12:55:02;;;;;;;;;;;24.20;69.50;;;;;;5030468;28;19909;-75
2023/05/28 12:57:27;;;;;;;;;;;24.30;68.60;;;;;;5020181;28;19916;-75
2023/05/28 12:59:53;;;;;;;;;;;24.40;69.70;;;;;;5025944;28;19916;-73
2023/05/28 13:02:18;;;;;;;;;;;24.30;69.20;;;;;;5029488;28;20382;-74
2023/05/28 13:04:44;;;;;;;;;;;24.30;69.60;;;;;;5025404;28;19909;-75
2023/05/28 13:07:09;;;;;;;;;;;24.20;70.30;;;;;;5028803;28;19913;-73
2023/05/28 13:09:35;;;;;;;;;;;24.20;69.80;;;;;;5033157;28;19909;-76
2023/05/28 13:12:01;;;;;;;;;;;24.00;69.80;;;;;;5033395;28;19916;-74
2023/05/28 13:14:28;;;;;;;;;;;23.90;69.90;;;;;;5031659;28;20426;-75
2023/05/28 13:16:57;;;;;;;;;;;23.80;70.70;;;;;;5032897;28;19909;-76
2023/05/28 13:19:23;;;;;;;;;;;23.70;70.30;;;;;;5029096;28;20355;-76
2023/05/28 13:21:49;;;;;;;;;;;23.50;71.10;;;;;;5030421;28;19931;-75
2023/05/28 13:24:15;;;;;;;;;;;23.40;70.60;;;;;;5032873;28;20359;-76
2023/05/28 13:26:40;;;;;;;;;;;23.30;70.90;;;;;;5031686;28;20386;-76
2023/05/28 13:29:06;;;;;;;;;;;23.20;70.30;;;;;;5033123;28;19909;-74
2023/05/28 13:31:32;;;;;;;;;;;23.00;70.40;;;;;;5030623;28;19909;-76
2023/05/28 13:33:57;;;;;;;;;;;22.90;71.40;;;;;;5027726;28;19913;-77
2023/05/28 13:36:23;;;;;;;;;;;22.80;71.50;;;;;;5030763;28;19912;-77
2023/05/28 13:38:49;;;;;;;;;;;22.60;71.70;;;;;;5030778;28;20295;-77
2023/05/28 13:41:15;;;;;;;;;;;22.50;71.70;;;;;;5030738;28;20383;-75
2023/05/28 13:43:41;;;;;;;;;;;22.30;72.80;;;;;;5027195;28;19973;-75
2023/05/28 13:46:07;;;;;;;;;;;22.30;72.60;;;;;;5030730;28;19905;-75
2023/05/28 13:48:33;;;;;;;;;;;22.20;72.90;;;;;;5030748;28;20314;-77
2023/05/28 13:50:59;;;;;;;;;;;22.20;73.60;;;;;;5031824;28;20031;-75
2023/05/28 13:53:26;;;;;;;;;;;22.20;74.10;;;;;;5025230;28;19955;-76
2023/05/28 13:55:51;;;;;;;;;;;22.30;73.50;;;;;;5030941;28;20287;-76
2023/05/28 13:58:17;;;;;;;;;;;22.40;73.80;;;;;;5032599;28;19909;-77
2023/05/28 14:00:42;;;;;;;;;;;22.50;73.10;;;;;;5032020;28;19913;-77
2023/05/28 14:03:08;;;;;;;;;;;22.70;72.10;;;;;;5032231;28;20279;-77
2023/05/28 14:05:34;;;;;;;;;;;22.70;71.70;;;;;;5032470;28;19909;-77
2023/05/28 14:08:00;;;;;;;;;;;22.80;71.20;;;;;;5031593;28;20051;-77
2023/05/28 14:10:26;;;;;;;;;;;22.90;71.20;;;;;;5037631;28;20434;-77